Chicago, IL

01:55 CST dnia 08-grudzień-2016 (GMT -0600)
George Street | | Change Station

Wysokość 656 ft 41.94 °N, 87.88 °W | Updated 9 minutes ago

pochmurno
pochmurno
24.1 ° F
Odczuwalna 18 ° F
Płn.
5.0
Wiatr zmienny Wiatr od ZdPnZd
Gusts 11.2 mph

Dziś
Wysoka -- | Niska -- ° F
--% Prawdop. opadów
Wczoraj
Wysoka -- | Niska -- ° F
Precip. -- cali
Ciśnienie 30.17 cali
Widzialność 10.0 mil
chmury pochmurno 2800 ft
czynnik chłodzący wiatru 18 ° F
Punkt rosy 16 ° F
Wilgotność 71%
Opady deszczu 0.00 cali
grubość pokrywy śnieżnej Niedostępne.
7:07 AM 4:20 PM
Pierwsza kwadra, 61% visible
METAR KORD 080751Z 27018G28KT 10SM -SN OVC028 M05/M10 A3014 RMK AO2 PK WND 28030/0703 SLP217 P0000 T10501100
Ciśnienie 30.17 cali
Widzialność 10.0 mil
chmury pochmurno 2800 ft
czynnik chłodzący wiatru 18 ° F
Punkt rosy 16 ° F
Wilgotność 71%
Opady deszczu 0.00 cali
grubość pokrywy śnieżnej Niedostępne.
7:07 AM 4:20 PM
Pierwsza kwadra, 61% visible
METAR KORD 080751Z 27018G28KT 10SM -SN OVC028 M05/M10 A3014 RMK AO2 PK WND 28030/0703 SLP217 P0000 T10501100

10-Day Weather Forecast

Almanac

Astronomia

Dec. 08, 2016 Wschód Zachów
Aktualny czas
Zmierzch cywilny
Zmierzch żeglarski
świt/zmierzch astronomiczny
Księżyc
całkowite oświetlenie
Długość dnia
Tomorrow will be .
, % of the Moon is Illuminated

Dzisiejsze ekstrema

State Highs State Lows

Community

WunderPhotos

Upload Photos

1,956,259 zdjęcia zostały przesłane!

WunderBlog® & News

Nearby

Jakość powietrza

  Jakość powietrza czynnik AQ Zanieczyszczenie
Not available.

Głębokość pokrywy śnieżnej

Station Depth n.p.m.

Aktywność sejsmiczna

Miejscowość Distance Mag. Time & Date
Minimum magnitude displayed is 2.5.

Temperatury wody na wybrzeżu

Miejsce Temperatura

Stations

Najbliższa stacja pogodowa

Lokalizacja stacji Temp. czynnik chłodzący wiatru Punkt rosy Wilgotność Wiatr Precip. Wysokość Uaktualniono Typ
                   

Watches & Warnings

There are currently no watches in effect.